Terminal Aerodrome Forecast
Issued by NWS

Home | Current Version | Previous Version | Text Only | Print | Product List | Glossary On
Versions: 1 2 3 4 5 6 7 8 9 10 11 12 13 14 15 16 17 18 19 20 21 22 23
000
FTUS46 KSEW 052300
TAFSEA
TAF
KSEA 052320Z 0600/0706 VRB05KT P6SM VCTS BKN035CB BKN050
      TEMPO 0601/0604 03007KT 4SM -TSRA BKN025CB OVC040
     FM060500 VRB05KT P6SM VCSH BKN025 BKN050
     FM061800 33007KT P6SM VCSH SCT030 BKN050
     FM070000 02008KT P6SM SCT050=

USA.gov is the U.S. government's official web portal to all federal, state and local government web resources and services.